sensor_id;sensor_type;location;lat;lon;timestamp;temperature;humidity
25688;DHT22;17407;51.120;3.702;2023-02-08T00:01:09;2.30;99.90
25688;DHT22;17407;51.120;3.702;2023-02-08T00:03:36;2.30;99.90
25688;DHT22;17407;51.120;3.702;2023-02-08T00:06:02;2.30;99.90
25688;DHT22;17407;51.120;3.702;2023-02-08T00:08:28;2.20;99.90
25688;DHT22;17407;51.120;3.702;2023-02-08T00:10:54;2.40;99.90
25688;DHT22;17407;51.120;3.702;2023-02-08T00:13:19;2.20;99.90
25688;DHT22;17407;51.120;3.702;2023-02-08T00:15:45;2.20;99.90
25688;DHT22;17407;51.120;3.702;2023-02-08T00:18:12;2.30;99.90
25688;DHT22;17407;51.120;3.702;2023-02-08T00:20:41;2.10;99.90
25688;DHT22;17407;51.120;3.702;2023-02-08T00:23:07;2.10;99.90
25688;DHT22;17407;51.120;3.702;2023-02-08T00:25:33;2.00;99.90
25688;DHT22;17407;51.120;3.702;2023-02-08T00:27:59;2.00;99.90
25688;DHT22;17407;51.120;3.702;2023-02-08T00:30:25;2.00;99.90
25688;DHT22;17407;51.120;3.702;2023-02-08T00:32:51;1.90;99.90
25688;DHT22;17407;51.120;3.702;2023-02-08T00:35:17;2.10;99.90
25688;DHT22;17407;51.120;3.702;2023-02-08T00:37:42;2.10;99.90
25688;DHT22;17407;51.120;3.702;2023-02-08T00:40:08;2.10;99.90
25688;DHT22;17407;51.120;3.702;2023-02-08T00:42:35;1.90;99.90
25688;DHT22;17407;51.120;3.702;2023-02-08T00:45:00;1.80;99.90
25688;DHT22;17407;51.120;3.702;2023-02-08T00:47:26;1.70;99.90
25688;DHT22;17407;51.120;3.702;2023-02-08T00:49:52;1.70;99.90
25688;DHT22;17407;51.120;3.702;2023-02-08T00:52:18;1.60;99.90
25688;DHT22;17407;51.120;3.702;2023-02-08T00:54:43;1.70;99.90
25688;DHT22;17407;51.120;3.702;2023-02-08T00:57:09;1.70;99.90
25688;DHT22;17407;51.120;3.702;2023-02-08T00:59:35;1.90;99.90
25688;DHT22;17407;51.120;3.702;2023-02-08T01:02:01;1.80;99.90
25688;DHT22;17407;51.120;3.702;2023-02-08T01:04:27;1.80;99.90
25688;DHT22;17407;51.120;3.702;2023-02-08T01:06:52;1.80;99.90
25688;DHT22;17407;51.120;3.702;2023-02-08T01:09:18;1.80;99.90
25688;DHT22;17407;51.120;3.702;2023-02-08T01:11:44;1.80;99.90
25688;DHT22;17407;51.120;3.702;2023-02-08T01:14:09;1.90;99.90
25688;DHT22;17407;51.120;3.702;2023-02-08T01:16:35;1.70;99.90
25688;DHT22;17407;51.120;3.702;2023-02-08T01:19:03;1.70;99.90
25688;DHT22;17407;51.120;3.702;2023-02-08T01:21:32;1.70;99.90
25688;DHT22;17407;51.120;3.702;2023-02-08T01:23:57;1.90;99.90
25688;DHT22;17407;51.120;3.702;2023-02-08T01:26:24;1.60;99.90
25688;DHT22;17407;51.120;3.702;2023-02-08T01:28:51;1.60;99.90
25688;DHT22;17407;51.120;3.702;2023-02-08T01:31:19;1.80;99.90
25688;DHT22;17407;51.120;3.702;2023-02-08T01:33:46;1.70;99.90
25688;DHT22;17407;51.120;3.702;2023-02-08T01:36:11;1.60;99.90
25688;DHT22;17407;51.120;3.702;2023-02-08T01:38:37;1.60;99.90
25688;DHT22;17407;51.120;3.702;2023-02-08T01:41:05;1.70;99.90
25688;DHT22;17407;51.120;3.702;2023-02-08T01:43:57;1.70;99.90
25688;DHT22;17407;51.120;3.702;2023-02-08T01:46:17;1.60;99.90
25688;DHT22;17407;51.120;3.702;2023-02-08T01:48:43;1.60;99.90
25688;DHT22;17407;51.120;3.702;2023-02-08T01:51:16;1.50;99.90
25688;DHT22;17407;51.120;3.702;2023-02-08T01:53:43;1.40;99.90
25688;DHT22;17407;51.120;3.702;2023-02-08T01:56:14;1.50;99.90
25688;DHT22;17407;51.120;3.702;2023-02-08T01:58:45;1.50;99.90
25688;DHT22;17407;51.120;3.702;2023-02-08T02:01:13;1.40;99.90
25688;DHT22;17407;51.120;3.702;2023-02-08T02:03:40;1.40;99.90
25688;DHT22;17407;51.120;3.702;2023-02-08T02:06:10;1.40;99.90
25688;DHT22;17407;51.120;3.702;2023-02-08T02:08:40;1.40;99.90
25688;DHT22;17407;51.120;3.702;2023-02-08T02:11:07;1.50;99.90
25688;DHT22;17407;51.120;3.702;2023-02-08T02:13:34;1.40;99.90
25688;DHT22;17407;51.120;3.702;2023-02-08T02:16:01;1.40;99.90
25688;DHT22;17407;51.120;3.702;2023-02-08T02:18:29;1.50;99.90
25688;DHT22;17407;51.120;3.702;2023-02-08T02:24:12;1.40;99.90
25688;DHT22;17407;51.120;3.702;2023-02-08T02:30:03;1.30;99.90
25688;DHT22;17407;51.120;3.702;2023-02-08T02:35:31;1.30;99.90
25688;DHT22;17407;51.120;3.702;2023-02-08T02:38:13;1.30;99.90
25688;DHT22;17407;51.120;3.702;2023-02-08T02:40:47;1.30;99.90
25688;DHT22;17407;51.120;3.702;2023-02-08T02:43:16;1.20;99.90
25688;DHT22;17407;51.120;3.702;2023-02-08T02:49:09;1.20;99.90
25688;DHT22;17407;51.120;3.702;2023-02-08T02:52:18;1.20;99.90
25688;DHT22;17407;51.120;3.702;2023-02-08T02:54:54;1.20;99.90
25688;DHT22;17407;51.120;3.702;2023-02-08T02:57:28;1.10;99.90
25688;DHT22;17407;51.120;3.702;2023-02-08T02:59:56;1.00;99.90
25688;DHT22;17407;51.120;3.702;2023-02-08T03:02:26;1.00;99.90
25688;DHT22;17407;51.120;3.702;2023-02-08T03:04:56;1.10;99.90
25688;DHT22;17407;51.120;3.702;2023-02-08T03:07:55;1.10;99.90
25688;DHT22;17407;51.120;3.702;2023-02-08T03:13:46;1.00;99.90
25688;DHT22;17407;51.120;3.702;2023-02-08T03:19:42;1.00;99.90
25688;DHT22;17407;51.120;3.702;2023-02-08T03:22:19;1.00;99.90
25688;DHT22;17407;51.120;3.702;2023-02-08T03:27:14;1.00;99.90
25688;DHT22;17407;51.120;3.702;2023-02-08T03:36:37;0.90;99.90
25688;DHT22;17407;51.120;3.702;2023-02-08T03:39:00;0.90;99.90
25688;DHT22;17407;51.120;3.702;2023-02-08T03:41:45;0.90;99.90
25688;DHT22;17407;51.120;3.702;2023-02-08T03:44:17;0.90;99.90
25688;DHT22;17407;51.120;3.702;2023-02-08T03:47:01;0.90;99.90
25688;DHT22;17407;51.120;3.702;2023-02-08T03:49:36;0.90;99.90
25688;DHT22;17407;51.120;3.702;2023-02-08T03:55:38;0.80;99.90
25688;DHT22;17407;51.120;3.702;2023-02-08T03:58:17;0.90;99.90
25688;DHT22;17407;51.120;3.702;2023-02-08T04:00:53;0.90;99.90
25688;DHT22;17407;51.120;3.702;2023-02-08T04:03:24;0.80;99.90
25688;DHT22;17407;51.120;3.702;2023-02-08T04:05:54;0.80;99.90
25688;DHT22;17407;51.120;3.702;2023-02-08T04:08:23;0.80;99.90
25688;DHT22;17407;51.120;3.702;2023-02-08T04:10:49;0.80;99.90
25688;DHT22;17407;51.120;3.702;2023-02-08T04:13:17;0.90;99.90
25688;DHT22;17407;51.120;3.702;2023-02-08T04:15:43;0.80;99.90
25688;DHT22;17407;51.120;3.702;2023-02-08T04:18:09;0.90;99.90
25688;DHT22;17407;51.120;3.702;2023-02-08T04:20:35;0.80;99.90
25688;DHT22;17407;51.120;3.702;2023-02-08T04:23:01;0.70;99.90
25688;DHT22;17407;51.120;3.702;2023-02-08T04:25:27;0.60;99.90
25688;DHT22;17407;51.120;3.702;2023-02-08T04:27:53;0.60;99.90
25688;DHT22;17407;51.120;3.702;2023-02-08T04:30:19;0.70;99.90
25688;DHT22;17407;51.120;3.702;2023-02-08T04:32:45;0.70;99.90
25688;DHT22;17407;51.120;3.702;2023-02-08T04:35:11;0.70;99.90
25688;DHT22;17407;51.120;3.702;2023-02-08T04:37:37;0.60;99.90
25688;DHT22;17407;51.120;3.702;2023-02-08T04:40:03;0.70;99.90
25688;DHT22;17407;51.120;3.702;2023-02-08T04:42:29;0.60;99.90
25688;DHT22;17407;51.120;3.702;2023-02-08T04:44:55;0.60;99.90
25688;DHT22;17407;51.120;3.702;2023-02-08T04:47:21;0.60;99.90
25688;DHT22;17407;51.120;3.702;2023-02-08T04:49:50;0.70;99.90
25688;DHT22;17407;51.120;3.702;2023-02-08T04:52:18;0.70;99.90
25688;DHT22;17407;51.120;3.702;2023-02-08T04:54:44;0.70;99.90
25688;DHT22;17407;51.120;3.702;2023-02-08T04:57:17;0.80;99.90
25688;DHT22;17407;51.120;3.702;2023-02-08T04:59:45;0.70;99.90
25688;DHT22;17407;51.120;3.702;2023-02-08T05:02:11;0.70;99.90
25688;DHT22;17407;51.120;3.702;2023-02-08T05:04:37;0.60;99.90
25688;DHT22;17407;51.120;3.702;2023-02-08T05:07:03;0.50;99.90
25688;DHT22;17407;51.120;3.702;2023-02-08T05:09:32;0.60;99.90
25688;DHT22;17407;51.120;3.702;2023-02-08T05:12:13;0.60;99.90
25688;DHT22;17407;51.120;3.702;2023-02-08T05:17:45;0.50;99.90
25688;DHT22;17407;51.120;3.702;2023-02-08T06:36:56;0.20;99.90
25688;DHT22;17407;51.120;3.702;2023-02-08T06:39:28;0.20;99.90
25688;DHT22;17407;51.120;3.702;2023-02-08T06:41:54;0.20;99.90
25688;DHT22;17407;51.120;3.702;2023-02-08T06:44:20;0.20;99.90
25688;DHT22;17407;51.120;3.702;2023-02-08T06:46:46;0.20;99.90
25688;DHT22;17407;51.120;3.702;2023-02-08T06:49:12;0.20;99.90
25688;DHT22;17407;51.120;3.702;2023-02-08T06:51:38;0.20;99.90
25688;DHT22;17407;51.120;3.702;2023-02-08T06:54:05;0.30;99.90
25688;DHT22;17407;51.120;3.702;2023-02-08T06:56:33;0.40;99.90
25688;DHT22;17407;51.120;3.702;2023-02-08T06:58:59;0.30;99.90
25688;DHT22;17407;51.120;3.702;2023-02-08T07:01:31;0.30;99.90
25688;DHT22;17407;51.120;3.702;2023-02-08T07:04:06;0.30;99.90
25688;DHT22;17407;51.120;3.702;2023-02-08T07:06:32;0.30;99.90
25688;DHT22;17407;51.120;3.702;2023-02-08T07:08:58;0.20;99.90
25688;DHT22;17407;51.120;3.702;2023-02-08T07:11:33;0.20;99.90
25688;DHT22;17407;51.120;3.702;2023-02-08T07:14:04;0.30;99.90
25688;DHT22;17407;51.120;3.702;2023-02-08T07:16:30;0.20;99.90
25688;DHT22;17407;51.120;3.702;2023-02-08T07:18:56;0.20;99.90
25688;DHT22;17407;51.120;3.702;2023-02-08T07:21:25;0.20;99.90
25688;DHT22;17407;51.120;3.702;2023-02-08T07:23:55;0.20;99.90
25688;DHT22;17407;51.120;3.702;2023-02-08T07:29:55;0.20;99.90
25688;DHT22;17407;51.120;3.702;2023-02-08T07:32:24;0.20;99.90
25688;DHT22;17407;51.120;3.702;2023-02-08T07:35:01;0.20;99.90
25688;DHT22;17407;51.120;3.702;2023-02-08T07:37:30;0.20;99.90
25688;DHT22;17407;51.120;3.702;2023-02-08T07:40:02;0.30;99.90
25688;DHT22;17407;51.120;3.702;2023-02-08T07:42:52;0.20;99.90
25688;DHT22;17407;51.120;3.702;2023-02-08T07:45:24;0.20;99.90
25688;DHT22;17407;51.120;3.702;2023-02-08T07:47:59;0.20;99.90
25688;DHT22;17407;51.120;3.702;2023-02-08T07:50:25;0.20;99.90
25688;DHT22;17407;51.120;3.702;2023-02-08T07:52:54;0.20;99.90
25688;DHT22;17407;51.120;3.702;2023-02-08T07:55:26;0.20;99.90
25688;DHT22;17407;51.120;3.702;2023-02-08T07:57:57;0.20;99.90
25688;DHT22;17407;51.120;3.702;2023-02-08T08:00:26;0.20;99.90
25688;DHT22;17407;51.120;3.702;2023-02-08T08:02:53;0.20;99.90
25688;DHT22;17407;51.120;3.702;2023-02-08T08:05:22;0.20;99.90
25688;DHT22;17407;51.120;3.702;2023-02-08T08:07:48;0.40;99.90
25688;DHT22;17407;51.120;3.702;2023-02-08T08:10:15;0.30;99.90
25688;DHT22;17407;51.120;3.702;2023-02-08T08:12:41;0.30;99.90
25688;DHT22;17407;51.120;3.702;2023-02-08T08:15:06;0.40;99.90
25688;DHT22;17407;51.120;3.702;2023-02-08T08:17:32;0.50;99.90
25688;DHT22;17407;51.120;3.702;2023-02-08T08:19:58;0.60;99.90
25688;DHT22;17407;51.120;3.702;2023-02-08T08:22:24;0.80;99.90
25688;DHT22;17407;51.120;3.702;2023-02-08T08:24:49;1.00;99.90
25688;DHT22;17407;51.120;3.702;2023-02-08T08:27:15;1.10;99.90
25688;DHT22;17407;51.120;3.702;2023-02-08T08:29:40;1.40;99.90
25688;DHT22;17407;51.120;3.702;2023-02-08T08:32:06;1.30;99.90
25688;DHT22;17407;51.120;3.702;2023-02-08T08:34:32;1.70;99.90
25688;DHT22;17407;51.120;3.702;2023-02-08T08:36:59;1.60;99.90
25688;DHT22;17407;51.120;3.702;2023-02-08T08:39:25;1.70;99.90
25688;DHT22;17407;51.120;3.702;2023-02-08T08:41:52;1.90;99.90
25688;DHT22;17407;51.120;3.702;2023-02-08T08:44:18;1.90;99.90
25688;DHT22;17407;51.120;3.702;2023-02-08T08:46:44;2.10;99.90
25688;DHT22;17407;51.120;3.702;2023-02-08T08:49:10;2.20;99.90
25688;DHT22;17407;51.120;3.702;2023-02-08T08:51:35;2.50;99.90
25688;DHT22;17407;51.120;3.702;2023-02-08T08:54:03;2.70;99.90
25688;DHT22;17407;51.120;3.702;2023-02-08T08:56:29;3.00;99.90
25688;DHT22;17407;51.120;3.702;2023-02-08T08:58:54;3.50;99.90
25688;DHT22;17407;51.120;3.702;2023-02-08T09:01:20;4.00;99.90
25688;DHT22;17407;51.120;3.702;2023-02-08T09:03:46;4.70;99.90
25688;DHT22;17407;51.120;3.702;2023-02-08T09:06:11;5.60;99.90
25688;DHT22;17407;51.120;3.702;2023-02-08T09:08:37;6.30;99.90
25688;DHT22;17407;51.120;3.702;2023-02-08T09:11:05;7.10;99.90
25688;DHT22;17407;51.120;3.702;2023-02-08T09:13:30;7.80;99.90
25688;DHT22;17407;51.120;3.702;2023-02-08T09:15:56;8.60;99.90
25688;DHT22;17407;51.120;3.702;2023-02-08T09:18:22;9.30;99.90
25688;DHT22;17407;51.120;3.702;2023-02-08T09:20:47;10.00;99.90
25688;DHT22;17407;51.120;3.702;2023-02-08T09:23:13;10.40;99.90
25688;DHT22;17407;51.120;3.702;2023-02-08T09:25:39;10.90;99.90
25688;DHT22;17407;51.120;3.702;2023-02-08T09:28:05;11.30;99.90
25688;DHT22;17407;51.120;3.702;2023-02-08T09:30:31;11.60;99.90
25688;DHT22;17407;51.120;3.702;2023-02-08T09:32:57;12.20;99.90
25688;DHT22;17407;51.120;3.702;2023-02-08T09:35:23;12.70;99.90
25688;DHT22;17407;51.120;3.702;2023-02-08T09:37:52;13.00;99.90
25688;DHT22;17407;51.120;3.702;2023-02-08T09:40:25;13.30;97.10
25688;DHT22;17407;51.120;3.702;2023-02-08T09:43:07;13.40;98.80
25688;DHT22;17407;51.120;3.702;2023-02-08T09:45:58;14.00;96.30
25688;DHT22;17407;51.120;3.702;2023-02-08T09:48:31;14.50;93.60
25688;DHT22;17407;51.120;3.702;2023-02-08T09:54:06;15.20;85.50
25688;DHT22;17407;51.120;3.702;2023-02-08T09:56:37;15.30;82.30
25688;DHT22;17407;51.120;3.702;2023-02-08T09:59:05;15.20;78.40
25688;DHT22;17407;51.120;3.702;2023-02-08T10:01:36;14.50;75.90
25688;DHT22;17407;51.120;3.702;2023-02-08T10:04:07;13.40;75.90
25688;DHT22;17407;51.120;3.702;2023-02-08T10:06:34;12.50;80.70
25688;DHT22;17407;51.120;3.702;2023-02-08T10:09:03;11.90;84.80
25688;DHT22;17407;51.120;3.702;2023-02-08T10:11:52;11.30;83.40
25688;DHT22;17407;51.120;3.702;2023-02-08T10:14:58;10.70;86.40
25688;DHT22;17407;51.120;3.702;2023-02-08T10:31:01;8.50;97.40
25688;DHT22;17407;51.120;3.702;2023-02-08T10:36:15;7.80;98.10
25688;DHT22;17407;51.120;3.702;2023-02-08T10:38:42;7.80;96.70
25688;DHT22;17407;51.120;3.702;2023-02-08T10:41:09;7.70;98.10
25688;DHT22;17407;51.120;3.702;2023-02-08T10:44:04;7.30;99.10
25688;DHT22;17407;51.120;3.702;2023-02-08T10:52:23;7.30;99.80
25688;DHT22;17407;51.120;3.702;2023-02-08T10:54:49;7.20;99.90
25688;DHT22;17407;51.120;3.702;2023-02-08T10:57:31;7.20;99.90
25688;DHT22;17407;51.120;3.702;2023-02-08T11:00:02;7.20;99.90
25688;DHT22;17407;51.120;3.702;2023-02-08T11:02:32;7.20;99.90
25688;DHT22;17407;51.120;3.702;2023-02-08T11:05:07;7.10;99.90
25688;DHT22;17407;51.120;3.702;2023-02-08T11:07:33;7.20;99.90
25688;DHT22;17407;51.120;3.702;2023-02-08T11:10:13;7.30;99.90
25688;DHT22;17407;51.120;3.702;2023-02-08T11:12:40;7.30;99.90
25688;DHT22;17407;51.120;3.702;2023-02-08T11:15:20;7.30;99.90
25688;DHT22;17407;51.120;3.702;2023-02-08T11:17:47;7.40;99.90
25688;DHT22;17407;51.120;3.702;2023-02-08T11:20:33;7.50;99.90
25688;DHT22;17407;51.120;3.702;2023-02-08T11:23:02;7.70;99.90
25688;DHT22;17407;51.120;3.702;2023-02-08T11:25:37;7.80;99.90
25688;DHT22;17407;51.120;3.702;2023-02-08T11:28:04;8.00;99.90
25688;DHT22;17407;51.120;3.702;2023-02-08T11:30:30;8.10;99.40
25688;DHT22;17407;51.120;3.702;2023-02-08T11:33:18;8.30;97.20
25688;DHT22;17407;51.120;3.702;2023-02-08T11:36:14;8.30;97.60
25688;DHT22;17407;51.120;3.702;2023-02-08T11:38:41;8.50;95.60
25688;DHT22;17407;51.120;3.702;2023-02-08T11:41:15;8.60;93.60
25688;DHT22;17407;51.120;3.702;2023-02-08T11:44:00;8.70;93.60
25688;DHT22;17407;51.120;3.702;2023-02-08T11:46:27;8.70;90.30
25688;DHT22;17407;51.120;3.702;2023-02-08T11:48:54;8.90;86.80
25688;DHT22;17407;51.120;3.702;2023-02-08T11:51:38;9.20;85.70
25688;DHT22;17407;51.120;3.702;2023-02-08T11:54:04;9.30;82.70
25688;DHT22;17407;51.120;3.702;2023-02-08T11:56:32;9.50;85.50
25688;DHT22;17407;51.120;3.702;2023-02-08T11:59:18;9.80;83.60
25688;DHT22;17407;51.120;3.702;2023-02-08T12:01:44;9.90;79.10
25688;DHT22;17407;51.120;3.702;2023-02-08T12:04:12;10.00;81.90
25688;DHT22;17407;51.120;3.702;2023-02-08T12:07:04;10.30;78.90
25688;DHT22;17407;51.120;3.702;2023-02-08T12:12:21;10.70;80.60
25688;DHT22;17407;51.120;3.702;2023-02-08T12:23:27;11.60;69.70
25688;DHT22;17407;51.120;3.702;2023-02-08T12:36:41;12.80;64.30
25688;DHT22;17407;51.120;3.702;2023-02-08T12:39:46;13.10;63.40
25688;DHT22;17407;51.120;3.702;2023-02-08T12:48:44;14.20;57.40
25688;DHT22;17407;51.120;3.702;2023-02-08T12:53:45;15.00;57.00
25688;DHT22;17407;51.120;3.702;2023-02-08T12:56:17;15.30;55.70
25688;DHT22;17407;51.120;3.702;2023-02-08T12:58:45;15.70;51.70
25688;DHT22;17407;51.120;3.702;2023-02-08T13:01:25;16.00;52.20
25688;DHT22;17407;51.120;3.702;2023-02-08T13:07:00;16.80;50.70
25688;DHT22;17407;51.120;3.702;2023-02-08T13:12:03;18.00;44.50
25688;DHT22;17407;51.120;3.702;2023-02-08T13:14:46;18.90;44.00
25688;DHT22;17407;51.120;3.702;2023-02-08T13:17:27;19.50;41.00
25688;DHT22;17407;51.120;3.702;2023-02-08T13:20:37;20.40;40.70
25688;DHT22;17407;51.120;3.702;2023-02-08T13:23:26;21.50;39.40
25688;DHT22;17407;51.120;3.702;2023-02-08T13:25:56;22.10;37.90
25688;DHT22;17407;51.120;3.702;2023-02-08T13:28:24;23.00;34.50
25688;DHT22;17407;51.120;3.702;2023-02-08T13:31:26;24.00;33.00
25688;DHT22;17407;51.120;3.702;2023-02-08T13:33:57;25.20;31.60
25688;DHT22;17407;51.120;3.702;2023-02-08T13:36:33;26.60;30.30
25688;DHT22;17407;51.120;3.702;2023-02-08T13:39:04;27.50;28.20
25688;DHT22;17407;51.120;3.702;2023-02-08T13:41:31;28.40;27.70
25688;DHT22;17407;51.120;3.702;2023-02-08T13:44:16;29.20;26.20
25688;DHT22;17407;51.120;3.702;2023-02-08T13:46:47;30.40;25.80
25688;DHT22;17407;51.120;3.702;2023-02-08T13:58:03;33.00;23.40
25688;DHT22;17407;51.120;3.702;2023-02-08T14:00:33;33.00;22.80
25688;DHT22;17407;51.120;3.702;2023-02-08T14:03:21;32.90;22.40
25688;DHT22;17407;51.120;3.702;2023-02-08T14:13:53;31.20;23.70
25688;DHT22;17407;51.120;3.702;2023-02-08T14:18:56;30.70;22.50
25688;DHT22;17407;51.120;3.702;2023-02-08T14:24:05;30.30;22.60
25688;DHT22;17407;51.120;3.702;2023-02-08T14:26:31;30.50;23.00
25688;DHT22;17407;51.120;3.702;2023-02-08T14:28:59;30.50;22.20
25688;DHT22;17407;51.120;3.702;2023-02-08T14:31:38;30.50;22.50
25688;DHT22;17407;51.120;3.702;2023-02-08T14:34:05;30.60;22.90
25688;DHT22;17407;51.120;3.702;2023-02-08T14:36:33;30.60;22.20
25688;DHT22;17407;51.120;3.702;2023-02-08T14:39:21;30.80;22.00
25688;DHT22;17407;51.120;3.702;2023-02-08T14:42:02;31.00;21.70
25688;DHT22;17407;51.120;3.702;2023-02-08T14:47:04;30.90;21.10
25688;DHT22;17407;51.120;3.702;2023-02-08T14:49:44;30.70;20.60
25688;DHT22;17407;51.120;3.702;2023-02-08T14:52:14;30.80;21.10
25688;DHT22;17407;51.120;3.702;2023-02-08T14:54:52;30.80;20.90
25688;DHT22;17407;51.120;3.702;2023-02-08T14:57:33;30.70;20.70
25688;DHT22;17407;51.120;3.702;2023-02-08T15:00:05;29.90;19.30
25688;DHT22;17407;51.120;3.702;2023-02-08T15:02:32;29.50;19.50
25688;DHT22;17407;51.120;3.702;2023-02-08T15:04:59;28.90;19.90
25688;DHT22;17407;51.120;3.702;2023-02-08T15:07:52;28.10;20.60
25688;DHT22;17407;51.120;3.702;2023-02-08T15:10:20;27.30;20.70
25688;DHT22;17407;51.120;3.702;2023-02-08T15:12:53;26.50;21.40
25688;DHT22;17407;51.120;3.702;2023-02-08T15:15:30;25.60;22.40
25688;DHT22;17407;51.120;3.702;2023-02-08T15:17:58;24.40;21.80
25688;DHT22;17407;51.120;3.702;2023-02-08T15:20:26;23.60;23.60
25688;DHT22;17407;51.120;3.702;2023-02-08T15:23:05;22.70;24.50
25688;DHT22;17407;51.120;3.702;2023-02-08T15:25:33;22.00;24.90
25688;DHT22;17407;51.120;3.702;2023-02-08T15:28:16;21.20;25.10
25688;DHT22;17407;51.120;3.702;2023-02-08T15:30:42;20.50;25.70
25688;DHT22;17407;51.120;3.702;2023-02-08T15:33:14;19.80;27.20
25688;DHT22;17407;51.120;3.702;2023-02-08T15:35:43;19.10;27.00
25688;DHT22;17407;51.120;3.702;2023-02-08T15:38:20;18.70;28.00
25688;DHT22;17407;51.120;3.702;2023-02-08T15:41:10;18.40;28.80
25688;DHT22;17407;51.120;3.702;2023-02-08T15:43:37;18.10;29.30
25688;DHT22;17407;51.120;3.702;2023-02-08T15:46:19;17.80;29.50
25688;DHT22;17407;51.120;3.702;2023-02-08T15:48:45;17.40;30.20
25688;DHT22;17407;51.120;3.702;2023-02-08T15:51:12;17.00;31.80
25688;DHT22;17407;51.120;3.702;2023-02-08T15:53:43;16.60;32.10
25688;DHT22;17407;51.120;3.702;2023-02-08T15:56:09;16.50;32.90
25688;DHT22;17407;51.120;3.702;2023-02-08T15:58:43;16.30;31.90
25688;DHT22;17407;51.120;3.702;2023-02-08T16:01:17;16.00;32.40
25688;DHT22;17407;51.120;3.702;2023-02-08T16:03:54;15.70;33.00
25688;DHT22;17407;51.120;3.702;2023-02-08T16:06:34;15.40;33.00
25688;DHT22;17407;51.120;3.702;2023-02-08T16:09:02;15.10;34.40
25688;DHT22;17407;51.120;3.702;2023-02-08T16:11:33;14.90;35.10
25688;DHT22;17407;51.120;3.702;2023-02-08T16:14:02;14.70;35.40
25688;DHT22;17407;51.120;3.702;2023-02-08T16:16:36;14.40;36.00
25688;DHT22;17407;51.120;3.702;2023-02-08T16:21:46;14.10;36.50
25688;DHT22;17407;51.120;3.702;2023-02-08T16:29:25;13.50;38.50
25688;DHT22;17407;51.120;3.702;2023-02-08T16:32:05;13.40;38.50
25688;DHT22;17407;51.120;3.702;2023-02-08T16:34:33;13.30;37.40
25688;DHT22;17407;51.120;3.702;2023-02-08T16:37:02;13.00;39.70
25688;DHT22;17407;51.120;3.702;2023-02-08T16:45:12;12.50;42.30
25688;DHT22;17407;51.120;3.702;2023-02-08T16:50:17;12.30;44.20
25688;DHT22;17407;51.120;3.702;2023-02-08T16:52:43;12.10;44.70
25688;DHT22;17407;51.120;3.702;2023-02-08T16:55:23;11.90;45.10
25688;DHT22;17407;51.120;3.702;2023-02-08T16:57:52;11.80;45.80
25688;DHT22;17407;51.120;3.702;2023-02-08T17:03:17;11.50;44.60
25688;DHT22;17407;51.120;3.702;2023-02-08T17:05:49;11.40;43.70
25688;DHT22;17407;51.120;3.702;2023-02-08T17:08:22;11.20;44.90
25688;DHT22;17407;51.120;3.702;2023-02-08T17:10:53;11.10;45.80
25688;DHT22;17407;51.120;3.702;2023-02-08T17:13:29;10.90;45.40
25688;DHT22;17407;51.120;3.702;2023-02-08T17:15:56;10.70;45.60
25688;DHT22;17407;51.120;3.702;2023-02-08T17:18:31;10.50;46.70
25688;DHT22;17407;51.120;3.702;2023-02-08T17:20:57;10.40;47.30
25688;DHT22;17407;51.120;3.702;2023-02-08T17:23:24;10.50;45.80
25688;DHT22;17407;51.120;3.702;2023-02-08T17:25:51;10.40;46.50
25688;DHT22;17407;51.120;3.702;2023-02-08T17:28:18;10.30;46.40
25688;DHT22;17407;51.120;3.702;2023-02-08T17:30:45;10.20;47.70
25688;DHT22;17407;51.120;3.702;2023-02-08T17:33:12;10.20;47.30
25688;DHT22;17407;51.120;3.702;2023-02-08T17:35:43;10.10;47.20
25688;DHT22;17407;51.120;3.702;2023-02-08T17:38:09;10.00;48.10
25688;DHT22;17407;51.120;3.702;2023-02-08T17:40:35;9.90;48.30
25688;DHT22;17407;51.120;3.702;2023-02-08T17:43:02;9.80;48.80
25688;DHT22;17407;51.120;3.702;2023-02-08T17:45:29;9.80;49.50
25688;DHT22;17407;51.120;3.702;2023-02-08T17:47:55;9.80;49.80
25688;DHT22;17407;51.120;3.702;2023-02-08T17:50:23;9.70;50.20
25688;DHT22;17407;51.120;3.702;2023-02-08T17:52:49;9.60;51.00
25688;DHT22;17407;51.120;3.702;2023-02-08T17:55:16;9.50;51.40
25688;DHT22;17407;51.120;3.702;2023-02-08T17:57:43;9.40;51.70
25688;DHT22;17407;51.120;3.702;2023-02-08T18:00:20;9.40;52.30
25688;DHT22;17407;51.120;3.702;2023-02-08T18:02:52;9.30;53.00
25688;DHT22;17407;51.120;3.702;2023-02-08T18:05:23;9.20;53.40
25688;DHT22;17407;51.120;3.702;2023-02-08T18:07:49;9.00;54.00
25688;DHT22;17407;51.120;3.702;2023-02-08T18:10:15;9.00;54.30
25688;DHT22;17407;51.120;3.702;2023-02-08T18:12:42;8.90;54.90
25688;DHT22;17407;51.120;3.702;2023-02-08T18:15:10;8.80;55.50
25688;DHT22;17407;51.120;3.702;2023-02-08T18:17:37;8.70;55.80
25688;DHT22;17407;51.120;3.702;2023-02-08T18:20:03;8.60;55.90
25688;DHT22;17407;51.120;3.702;2023-02-08T18:22:29;8.50;56.50
25688;DHT22;17407;51.120;3.702;2023-02-08T18:24:54;8.40;57.10
25688;DHT22;17407;51.120;3.702;2023-02-08T18:27:21;8.30;57.30
25688;DHT22;17407;51.120;3.702;2023-02-08T18:29:47;8.20;57.40
25688;DHT22;17407;51.120;3.702;2023-02-08T18:32:13;8.10;57.70
25688;DHT22;17407;51.120;3.702;2023-02-08T18:34:39;8.00;57.90
25688;DHT22;17407;51.120;3.702;2023-02-08T18:37:07;7.90;57.80
25688;DHT22;17407;51.120;3.702;2023-02-08T18:39:33;7.80;58.30
25688;DHT22;17407;51.120;3.702;2023-02-08T18:41:59;7.70;58.80
25688;DHT22;17407;51.120;3.702;2023-02-08T18:44:25;7.60;59.20
25688;DHT22;17407;51.120;3.702;2023-02-08T18:46:51;7.50;60.10
25688;DHT22;17407;51.120;3.702;2023-02-08T18:49:16;7.50;60.10
25688;DHT22;17407;51.120;3.702;2023-02-08T18:51:43;7.40;60.10
25688;DHT22;17407;51.120;3.702;2023-02-08T18:54:11;7.40;60.50
25688;DHT22;17407;51.120;3.702;2023-02-08T18:56:39;7.30;60.50
25688;DHT22;17407;51.120;3.702;2023-02-08T18:59:05;7.30;60.90
25688;DHT22;17407;51.120;3.702;2023-02-08T19:01:31;7.30;61.20
25688;DHT22;17407;51.120;3.702;2023-02-08T19:03:57;7.30;61.40
25688;DHT22;17407;51.120;3.702;2023-02-08T19:06:25;7.20;61.60
25688;DHT22;17407;51.120;3.702;2023-02-08T19:08:53;7.10;62.10
25688;DHT22;17407;51.120;3.702;2023-02-08T19:11:24;7.00;62.90
25688;DHT22;17407;51.120;3.702;2023-02-08T19:13:51;7.00;63.20
25688;DHT22;17407;51.120;3.702;2023-02-08T19:16:18;6.90;64.00
25688;DHT22;17407;51.120;3.702;2023-02-08T19:18:46;7.00;64.60
25688;DHT22;17407;51.120;3.702;2023-02-08T19:21:14;6.90;64.80
25688;DHT22;17407;51.120;3.702;2023-02-08T19:23:40;6.70;65.10
25688;DHT22;17407;51.120;3.702;2023-02-08T19:26:08;6.60;65.60
25688;DHT22;17407;51.120;3.702;2023-02-08T19:28:35;6.60;66.50
25688;DHT22;17407;51.120;3.702;2023-02-08T19:31:05;6.50;67.30
25688;DHT22;17407;51.120;3.702;2023-02-08T19:33:34;6.30;68.10
25688;DHT22;17407;51.120;3.702;2023-02-08T19:36:08;6.20;68.50
25688;DHT22;17407;51.120;3.702;2023-02-08T19:38:34;6.10;69.10
25688;DHT22;17407;51.120;3.702;2023-02-08T19:41:00;6.00;70.10
25688;DHT22;17407;51.120;3.702;2023-02-08T19:43:26;6.00;70.80